Youngsville, NC

6:23 AM EST on March 01, 2015 (GMT -0500)
Country Brook | Change Station
CLOSE
Current Station
Personal Weather Station
Location: Youngsville, NC
Elevation: 449 ft
Nearby Weather Stations
Active Advisory: Winter Weather Advisory

Elev 449 ft 36.01 °N, 78.48 °W | Updated 7 seconds ago

Ice Pellets
Ice Pellets
27.7 °F
Feels Like 28 °F
N
0.0
Wind Variable Wind from NE
Gusts 0.0 mph

Today
High -- | Low -- °F
--% Chance of Precip.
Yesterday
High -- | Low -- °F
Precip. -- in
6:44 AM 6:08 PM
Waxing Gibbous, 84% visible
Pressure 30.61 in
Visibility 7.0 miles
Clouds Overcast 2100 ft
Windchill 28 °F
Dew Point 20 °F
Humidity 74%
Rainfall 0.00 in
Snow Depth Not available.
UV 0 out of 12
Pollen 3.10 out of 12
Air Quality Not available.
Flu Activity Not available.
METAR KLHZ 011115Z AUTO 35003KT 7SM UP OVC021 M02/M05 A3061 RMK AO2

More Conditions Fewer Conditions

Pressure 30.61 in
Visibility 7.0 miles
Clouds Overcast 2100 ft
Windchill 28 °F
Dew Point 20 °F
Humidity 74%
Rainfall 0.00 in
Snow Depth Not available.
UV 0 out of 12
Pollen 3.10 out of 12
Air Quality Not available.
Flu Activity Not available.
METAR KLHZ 011115Z AUTO 35003KT 7SM UP OVC021 M02/M05 A3061 RMK AO2

More Conditions Fewer Conditions

10-Day Weather Forecast

Almanac

Astronomy

Mar. 01, 2015 Rise Set
Actual Time
Civil Twilight
Nautical Twilight
Astronomical Twilight
Moon
Length of Visible Light
Length of Day
Tomorrow will be .
, % of the Moon is Illuminated

Today's Extremes

State Highs State Lows

Community

WunderPhotos

Upload Photos

1,801,364 photos uploaded!

WunderBlogs® & News

Nearby

Air Quality

  Air Quality AQ Index Pollutant
Not available.

Snow Depth

Station Depth Elevation

Earthquake Activity

City Distance Mag. Time & Date
Minimum magnitude displayed is 2.5.

Coastal Water Temperatures

Place Temperature

Nearby Weather Stations

Winter Weather Advisory
Statement as of 4:15 AM EST on March 01, 2015

... Winter Weather Advisory remains in effect until noon EST
today...

* locations... include much of the Piedmont of NC and the northern
coastal plain.

* Hazard types... light freezing rain and freezing drizzle.

* Accumulations... ice accrual of less than a tenth of an inch.

* Timing... through this morning.

* Impacts... a thin coating of ice on roads and sidewalks will make
travel and walking treacherous this morning.

* Temperatures... in the lower 30s.

Precautionary/preparedness actions...

This Winter Weather Advisory means that periods of freezing rain
or freezing drizzle will cause travel difficulties. Be prepared
for slippery roads... and use extra caution while driving.